KRNT - Renton, Washington, USA
Distance from station: W 21mi, 33km
Updated: Sun, 24-Jan-2021 8:53am PST

 Wind from calm
Wind: Calm
Temperature: 39°F , 4°C
Dew Point: 36°F , 2°C
Humidity: 87%
Barometer: 29.79 inHg , 1008.8 hPa
Visibility: 10 miles , 16 km
Cloud details: 5000 ft
6500 ft
2021/01/24 16:53 KRNT 241653Z 00000KT 10SM BKN050 OVC065 04/02 A2979 RMK AO2 RAE17 SLP092 P0000 T00390017
KBFI - Seattle/Boeing, Washington, USA
Distance from station: W 25mi, 41km
Updated: Sun, 24-Jan-2021 8:53am PST
Light rain, Overcast
Light rain, Overcast
 Wind from calm
Wind: Calm
Temperature: 37°F , 3°C
Dew Point: 36°F , 2°C
Humidity: 93%
Barometer: 29.79 inHg , 1008.8 hPa
Visibility: 10 miles , 16 km
Cloud details: 1500 ft
2300 ft
2021/01/24 16:53 KBFI 241653Z 00000KT 10SM -RA SCT015 OVC023 03/02 A2979 RMK AO2 SLP087 P0000 T00330022
 
KSEA - Seattle/Metro, Washington, USA
Distance from station: W 25mi, 41km
Updated: Sun, 24-Jan-2021 8:53am PST

 Wind from calm
Wind: Calm
Temperature: 39°F , 4°C
Dew Point: 34°F , 1°C
Humidity: 81%
Barometer: 29.77 inHg , 1008.1 hPa
Visibility: 10 miles , 16 km
Cloud details: 1000 ft
3300 ft
12000 ft
2021/01/24 16:53 KSEA 241653Z 00000KT 10SM FEW010 BKN033 OVC120 04/01 A2977 RMK AO2 RAE00 SLP091 P0000 T00440011
KSMP - Stampede Pass, Washington, USA
Distance from station: SE 26mi, 41km
Updated: Sun, 24-Jan-2021 9:40am PST
Light snow, Mist, Overcast
Light snow, Mist, Overcast
 Wind from calm
Wind: Calm
Temperature: 25°F , -4°C
Dew Point: 21°F , -6°C
Humidity: 86%
Barometer: 29.66 inHg , 1004.4 hPa
Summary: Light snow, Mist
Visibility: 1 mile , 2 km
Cloud details: 200 ft
600 ft
2021/01/24 17:40 KSMP 241740Z AUTO 00000KT 1SM -SN BR BKN002 OVC006 M04/M06 A2966 RMK AO2 P0001 T10391056
 
KPLU - Puyallup/Thun, Washington, USA
Distance from station: SW 36mi, 59km
Updated: Sun, 24-Jan-2021 9:35am PST

 Wind from calm
Wind: Calm
Temperature: 39°F , 4°C
Dew Point: 37°F , 3°C
Humidity: 93%
Barometer: 29.77 inHg , 1008.1 hPa
Visibility: 10 miles , 16 km
Cloud details: 1800 ft
2900 ft
5500 ft
2021/01/24 17:35 KPLU 241735Z AUTO 00000KT 10SM BKN018 BKN029 OVC055 04/03 A2977 RMK AO2
KPAE - Everett, Washington, USA
Distance from station: NW 37mi, 60km
Updated: Sun, 24-Jan-2021 9:19am PST
Light rain, Overcast
Light rain, Overcast
 Wind from SE
Wind: SE 9 mph , 15 km/h, Gust: 17 mph , 28 km/h
Temperature: 36°F , 2°C
Wind Chill: 29°F , -2°C
Dew Point: 34°F , 1°C
Humidity: 93%
Barometer: 29.76 inHg , 1007.8 hPa
Visibility: 10 miles , 16 km
Cloud details: 3200 ft
2021/01/24 17:19 KPAE 241719Z 14008G15KT 10SM -RA OVC032 02/01 A2976 RMK AO2 P0000 T00220006
 
KTIW - Tacoma, Washington, USA
Distance from station: WSW 41mi, 66km
Updated: Sun, 24-Jan-2021 8:53am PST
Light rain, Mist, Overcast
Light rain, Mist, Overcast
 Wind from SSW
Wind: SSW 5 mph , 7 km/h
Temperature: 37°F , 3°C
Wind Chill: 33°F , 1°C
Dew Point: 34°F , 1°C
Humidity: 87%
Barometer: 29.78 inHg , 1008.5 hPa
Summary: Light rain, Mist
Visibility: 6 miles , 10 km
Cloud details: 1300 ft
2300 ft
2021/01/24 16:53 KTIW 241653Z 20004KT 6SM -RA BR FEW013 OVC023 03/01 A2978 RMK AO2 RAE09B31 SLP087 P0002 T00280011
KTCM - Tacoma/Mc Chord, Washington, USA
Distance from station: SW 42mi, 67km
Updated: Wed, 20-Jan-2021 11:11am PST
NOT Current
Mist, Overcast
Mist, Overcast
 Wind from calm
Wind: Calm
Temperature: 39°F , 4°C
Dew Point: 39°F , 4°C
Humidity: 100%
Barometer: 30.19 inHg , 1022.4 hPa
Visibility: 2 miles , 3 km
Cloud details: 300 ft
2021/01/20 19:11 KTCM 201911Z 00000KT 2SM BR OVC003 04/04 A3019 RMK AO2A CIG 002 RWY34 SLP230 $
 
KPWT - Bremerton Ntnl, Washington, USA
Distance from station: W 45mi, 73km
Updated: Sun, 24-Jan-2021 8:56am PST
Light rain, Overcast
Light rain, Overcast
 Wind from SSW
Wind: SSW 10 mph , 17 km/h
Temperature: 36°F , 2°C
Wind Chill: 29°F , -2°C
Dew Point: 36°F , 2°C
Humidity: 100%
Barometer: 29.77 inHg , 1008.1 hPa
Visibility: 7 miles , 11 km
Cloud details: 500 ft
2021/01/24 16:56 KPWT 241656Z AUTO 21009KT 7SM -RA OVC005 02/02 A2977 RMK AO2 SLP089 P0005 T00220017 FZRANO $
KGRF - Fort Lewis/Gray, Washington, USA
Distance from station: SW 48mi, 77km
Updated: Wed, 20-Jan-2021 10:16am PST
NOT Current
Fog, Overcast
Fog, Overcast
 Wind from calm
Wind: Calm
Temperature: 37°F , 3°C
Dew Point: 37°F , 3°C
Humidity: 100%
Barometer: 30.19 inHg , 1022.4 hPa
Visibility: 1/4 mile , 0.4 km
Cloud details: 200 ft
2021/01/20 18:16 KGRF 201816Z 00000KT 1/4SM FG VV002 03/03 A3019 RMK AO2A SLP230 $
 
KAWO - Arlington Muni, Washington, USA
Distance from station: NNW 50mi, 80km
Updated: Sun, 24-Jan-2021 8:56am PST
Light rain, Overcast
Light rain, Overcast
 Wind from N
Wind: N 5 mph , 7 km/h
Temperature: 36°F , 2°C
Wind Chill: 32°F , 0°C
Dew Point: 34°F , 1°C
Humidity: 93%
Barometer: 29.79 inHg , 1008.8 hPa
Visibility: 10 miles , 16 km
Cloud details: 1900 ft
2021/01/24 16:56 KAWO 241656Z AUTO 36004KT 10SM -RA OVC019 02/01 A2979 RMK AO2 SLP095 P0000 T00170011 FZRANO